sensor_id;sensor_type;location;lat;lon;timestamp;P1;durP1;ratioP1;P2;durP2;ratioP2
71091;SDS011;58751;50.708;7.134;2023-12-20T00:02:11;2.10;;;1.93;;
71091;SDS011;58751;50.708;7.134;2023-12-20T00:04:37;2.40;;;2.20;;
71091;SDS011;58751;50.708;7.134;2023-12-20T00:07:02;1.93;;;1.83;;
71091;SDS011;58751;50.708;7.134;2023-12-20T00:09:27;1.90;;;1.80;;
71091;SDS011;58751;50.708;7.134;2023-12-20T00:11:53;3.37;;;3.07;;
71091;SDS011;58751;50.708;7.134;2023-12-20T00:14:20;2.53;;;2.40;;
71091;SDS011;58751;50.708;7.134;2023-12-20T00:16:45;2.33;;;2.22;;
71091;SDS011;58751;50.708;7.134;2023-12-20T00:19:10;2.30;;;2.20;;
71091;SDS011;58751;50.708;7.134;2023-12-20T00:21:36;2.50;;;2.30;;
71091;SDS011;58751;50.708;7.134;2023-12-20T00:24:01;2.97;;;2.70;;
71091;SDS011;58751;50.708;7.134;2023-12-20T00:26:27;2.57;;;2.37;;
71091;SDS011;58751;50.708;7.134;2023-12-20T00:28:52;2.60;;;2.40;;
71091;SDS011;58751;50.708;7.134;2023-12-20T00:31:19;2.20;;;2.10;;
71091;SDS011;58751;50.708;7.134;2023-12-20T00:33:44;2.20;;;2.10;;
71091;SDS011;58751;50.708;7.134;2023-12-20T00:36:10;2.20;;;2.00;;
71091;SDS011;58751;50.708;7.134;2023-12-20T00:38:35;3.50;;;2.60;;
71091;SDS011;58751;50.708;7.134;2023-12-20T00:41:01;2.83;;;2.27;;
71091;SDS011;58751;50.708;7.134;2023-12-20T00:43:26;2.20;;;2.10;;
71091;SDS011;58751;50.708;7.134;2023-12-20T00:45:51;2.30;;;2.10;;
71091;SDS011;58751;50.708;7.134;2023-12-20T00:48:18;2.37;;;2.20;;
71091;SDS011;58751;50.708;7.134;2023-12-20T00:50:43;2.13;;;1.95;;
71091;SDS011;58751;50.708;7.134;2023-12-20T00:53:09;2.60;;;2.40;;
71091;SDS011;58751;50.708;7.134;2023-12-20T00:55:34;1.93;;;1.83;;
71091;SDS011;58751;50.708;7.134;2023-12-20T00:57:59;2.50;;;2.33;;
71091;SDS011;58751;50.708;7.134;2023-12-20T01:00:25;3.07;;;2.77;;
71091;SDS011;58751;50.708;7.134;2023-12-20T01:02:50;2.23;;;2.13;;
71091;SDS011;58751;50.708;7.134;2023-12-20T01:05:17;2.33;;;2.17;;
71091;SDS011;58751;50.708;7.134;2023-12-20T01:07:42;2.83;;;2.10;;
71091;SDS011;58751;50.708;7.134;2023-12-20T01:10:08;2.33;;;2.13;;
71091;SDS011;58751;50.708;7.134;2023-12-20T01:12:34;1.97;;;1.87;;
71091;SDS011;58751;50.708;7.134;2023-12-20T01:15:00;2.00;;;1.90;;
71091;SDS011;58751;50.708;7.134;2023-12-20T01:17:26;1.70;;;1.60;;
71091;SDS011;58751;50.708;7.134;2023-12-20T01:19:51;2.30;;;1.80;;
71091;SDS011;58751;50.708;7.134;2023-12-20T01:22:18;2.23;;;1.73;;
71091;SDS011;58751;50.708;7.134;2023-12-20T01:24:43;2.53;;;2.33;;
71091;SDS011;58751;50.708;7.134;2023-12-20T01:27:08;2.27;;;2.10;;
71091;SDS011;58751;50.708;7.134;2023-12-20T01:29:34;3.37;;;2.60;;
71091;SDS011;58751;50.708;7.134;2023-12-20T01:31:59;3.37;;;3.10;;
71091;SDS011;58751;50.708;7.134;2023-12-20T01:34:25;3.40;;;3.10;;
71091;SDS011;58751;50.708;7.134;2023-12-20T01:36:50;4.10;;;3.80;;
71091;SDS011;58751;50.708;7.134;2023-12-20T01:39:17;6.10;;;4.30;;
71091;SDS011;58751;50.708;7.134;2023-12-20T01:41:42;5.32;;;4.93;;
71091;SDS011;58751;50.708;7.134;2023-12-20T01:44:07;5.90;;;5.30;;
71091;SDS011;58751;50.708;7.134;2023-12-20T01:46:33;6.07;;;5.47;;
71091;SDS011;58751;50.708;7.134;2023-12-20T01:48:58;6.67;;;6.03;;
71091;SDS011;58751;50.708;7.134;2023-12-20T01:51:24;7.60;;;6.07;;
71091;SDS011;58751;50.708;7.134;2023-12-20T01:53:49;7.00;;;6.27;;
71091;SDS011;58751;50.708;7.134;2023-12-20T01:56:16;7.40;;;6.27;;
71091;SDS011;58751;50.708;7.134;2023-12-20T01:58:43;7.38;;;6.75;;
71091;SDS011;58751;50.708;7.134;2023-12-20T02:01:09;8.85;;;6.80;;
71091;SDS011;58751;50.708;7.134;2023-12-20T02:03:35;10.27;;;7.93;;
71091;SDS011;58751;50.708;7.134;2023-12-20T02:06:00;12.43;;;8.50;;
71091;SDS011;58751;50.708;7.134;2023-12-20T02:08:26;15.37;;;11.03;;
71091;SDS011;58751;50.708;7.134;2023-12-20T02:10:53;12.07;;;8.00;;
71091;SDS011;58751;50.708;7.134;2023-12-20T02:13:23;11.57;;;9.70;;
71091;SDS011;58751;50.708;7.134;2023-12-20T02:15:49;10.48;;;8.30;;
71091;SDS011;58751;50.708;7.134;2023-12-20T02:18:15;12.45;;;8.93;;
71091;SDS011;58751;50.708;7.134;2023-12-20T02:23:56;18.92;;;11.13;;
71091;SDS011;58751;50.708;7.134;2023-12-20T02:26:21;9.25;;;7.60;;
71091;SDS011;58751;50.708;7.134;2023-12-20T02:28:46;13.97;;;8.10;;
71091;SDS011;58751;50.708;7.134;2023-12-20T02:31:12;13.50;;;8.00;;
71091;SDS011;58751;50.708;7.134;2023-12-20T02:33:37;8.63;;;6.70;;
71091;SDS011;58751;50.708;7.134;2023-12-20T02:36:03;11.90;;;6.17;;
71091;SDS011;58751;50.708;7.134;2023-12-20T02:38:29;9.07;;;4.45;;
71091;SDS011;58751;50.708;7.134;2023-12-20T02:40:56;15.07;;;5.73;;
71091;SDS011;58751;50.708;7.134;2023-12-20T02:43:21;12.88;;;4.53;;
71091;SDS011;58751;50.708;7.134;2023-12-20T02:45:46;11.57;;;4.30;;
71091;SDS011;58751;50.708;7.134;2023-12-20T02:48:12;10.63;;;4.20;;
71091;SDS011;58751;50.708;7.134;2023-12-20T02:50:37;7.33;;;4.27;;
71091;SDS011;58751;50.708;7.134;2023-12-20T02:53:03;8.00;;;3.73;;
71091;SDS011;58751;50.708;7.134;2023-12-20T02:55:28;9.33;;;4.30;;
71091;SDS011;58751;50.708;7.134;2023-12-20T02:57:55;7.70;;;3.70;;
71091;SDS011;58751;50.708;7.134;2023-12-20T03:00:20;5.95;;;3.20;;
71091;SDS011;58751;50.708;7.134;2023-12-20T03:02:46;7.37;;;4.00;;
71091;SDS011;58751;50.708;7.134;2023-12-20T03:05:11;13.00;;;3.50;;
71091;SDS011;58751;50.708;7.134;2023-12-20T03:07:37;13.10;;;3.10;;
71091;SDS011;58751;50.708;7.134;2023-12-20T03:10:02;5.83;;;3.70;;
71091;SDS011;58751;50.708;7.134;2023-12-20T03:12:28;7.63;;;2.65;;
71091;SDS011;58751;50.708;7.134;2023-12-20T03:14:55;9.63;;;4.20;;
71091;SDS011;58751;50.708;7.134;2023-12-20T03:17:20;9.30;;;3.63;;
71091;SDS011;58751;50.708;7.134;2023-12-20T03:19:46;9.90;;;3.50;;
71091;SDS011;58751;50.708;7.134;2023-12-20T03:22:11;8.33;;;3.77;;
71091;SDS011;58751;50.708;7.134;2023-12-20T03:24:36;6.63;;;3.10;;
71091;SDS011;58751;50.708;7.134;2023-12-20T03:27:02;6.27;;;3.13;;
71091;SDS011;58751;50.708;7.134;2023-12-20T03:29:27;13.77;;;3.47;;
71091;SDS011;58751;50.708;7.134;2023-12-20T03:31:54;6.20;;;2.47;;
71091;SDS011;58751;50.708;7.134;2023-12-20T03:34:20;5.80;;;3.40;;
71091;SDS011;58751;50.708;7.134;2023-12-20T03:36:45;8.20;;;3.00;;
71091;SDS011;58751;50.708;7.134;2023-12-20T03:39:13;10.65;;;3.55;;
71091;SDS011;58751;50.708;7.134;2023-12-20T03:41:39;9.37;;;4.33;;
71091;SDS011;58751;50.708;7.134;2023-12-20T03:44:04;9.53;;;3.57;;
71091;SDS011;58751;50.708;7.134;2023-12-20T03:46:29;6.60;;;3.60;;
71091;SDS011;58751;50.708;7.134;2023-12-20T03:48:56;18.53;;;3.63;;
71091;SDS011;58751;50.708;7.134;2023-12-20T03:51:22;7.65;;;3.40;;
71091;SDS011;58751;50.708;7.134;2023-12-20T03:53:47;9.63;;;3.37;;
71091;SDS011;58751;50.708;7.134;2023-12-20T03:56:13;8.83;;;3.07;;
71091;SDS011;58751;50.708;7.134;2023-12-20T03:58:38;3.07;;;2.70;;
71091;SDS011;58751;50.708;7.134;2023-12-20T04:01:03;8.20;;;4.23;;
71091;SDS011;58751;50.708;7.134;2023-12-20T04:03:34;6.35;;;3.60;;
71091;SDS011;58751;50.708;7.134;2023-12-20T04:06:01;6.37;;;2.70;;
71091;SDS011;58751;50.708;7.134;2023-12-20T04:08:26;6.18;;;3.00;;
71091;SDS011;58751;50.708;7.134;2023-12-20T04:10:51;6.20;;;2.27;;
71091;SDS011;58751;50.708;7.134;2023-12-20T04:13:17;10.53;;;3.30;;
71091;SDS011;58751;50.708;7.134;2023-12-20T04:15:42;7.67;;;2.73;;
71091;SDS011;58751;50.708;7.134;2023-12-20T04:18:08;4.93;;;3.00;;
71091;SDS011;58751;50.708;7.134;2023-12-20T04:20:33;12.83;;;2.80;;
71091;SDS011;58751;50.708;7.134;2023-12-20T04:23:00;6.53;;;2.83;;
71091;SDS011;58751;50.708;7.134;2023-12-20T04:25:25;10.38;;;3.72;;
71091;SDS011;58751;50.708;7.134;2023-12-20T04:27:50;9.43;;;3.60;;
71091;SDS011;58751;50.708;7.134;2023-12-20T04:30:16;9.37;;;3.40;;
71091;SDS011;58751;50.708;7.134;2023-12-20T04:32:41;11.90;;;3.77;;
71091;SDS011;58751;50.708;7.134;2023-12-20T04:35:07;5.93;;;3.83;;
71091;SDS011;58751;50.708;7.134;2023-12-20T04:37:32;11.80;;;3.60;;
71091;SDS011;58751;50.708;7.134;2023-12-20T04:39:59;10.20;;;3.50;;
71091;SDS011;58751;50.708;7.134;2023-12-20T04:42:24;12.43;;;4.70;;
71091;SDS011;58751;50.708;7.134;2023-12-20T04:44:50;11.03;;;3.80;;
71091;SDS011;58751;50.708;7.134;2023-12-20T04:47:15;10.00;;;3.87;;
71091;SDS011;58751;50.708;7.134;2023-12-20T04:49:40;14.40;;;4.20;;
71091;SDS011;58751;50.708;7.134;2023-12-20T04:52:06;7.47;;;4.03;;
71091;SDS011;58751;50.708;7.134;2023-12-20T04:54:31;5.10;;;3.63;;
71091;SDS011;58751;50.708;7.134;2023-12-20T04:56:58;8.83;;;3.53;;
71091;SDS011;58751;50.708;7.134;2023-12-20T04:59:23;11.20;;;4.20;;
71091;SDS011;58751;50.708;7.134;2023-12-20T05:01:49;13.10;;;4.20;;
71091;SDS011;58751;50.708;7.134;2023-12-20T05:04:14;12.83;;;4.00;;
71091;SDS011;58751;50.708;7.134;2023-12-20T05:06:39;17.30;;;4.33;;
71091;SDS011;58751;50.708;7.134;2023-12-20T05:09:05;13.47;;;4.20;;
71091;SDS011;58751;50.708;7.134;2023-12-20T05:11:30;7.57;;;4.10;;
71091;SDS011;58751;50.708;7.134;2023-12-20T05:13:57;9.13;;;3.87;;
71091;SDS011;58751;50.708;7.134;2023-12-20T05:16:22;9.45;;;4.20;;
71091;SDS011;58751;50.708;7.134;2023-12-20T05:18:48;4.83;;;3.60;;
71091;SDS011;58751;50.708;7.134;2023-12-20T05:21:14;5.97;;;3.17;;
71091;SDS011;58751;50.708;7.134;2023-12-20T05:23:39;14.50;;;4.10;;
71091;SDS011;58751;50.708;7.134;2023-12-20T05:26:04;9.93;;;4.00;;
71091;SDS011;58751;50.708;7.134;2023-12-20T05:28:30;13.40;;;3.60;;
71091;SDS011;58751;50.708;7.134;2023-12-20T05:30:57;10.93;;;3.83;;
71091;SDS011;58751;50.708;7.134;2023-12-20T05:33:22;15.02;;;4.40;;
71091;SDS011;58751;50.708;7.134;2023-12-20T05:35:47;13.73;;;5.10;;
71091;SDS011;58751;50.708;7.134;2023-12-20T05:38:13;27.87;;;5.43;;
71091;SDS011;58751;50.708;7.134;2023-12-20T05:40:38;8.30;;;4.73;;
71091;SDS011;58751;50.708;7.134;2023-12-20T05:43:04;16.27;;;5.70;;
71091;SDS011;58751;50.708;7.134;2023-12-20T05:45:29;11.40;;;4.00;;
71091;SDS011;58751;50.708;7.134;2023-12-20T05:47:56;11.67;;;4.77;;
71091;SDS011;58751;50.708;7.134;2023-12-20T05:50:21;9.02;;;4.22;;
71091;SDS011;58751;50.708;7.134;2023-12-20T05:52:47;10.60;;;4.07;;
71091;SDS011;58751;50.708;7.134;2023-12-20T05:55:12;14.00;;;3.90;;
71091;SDS011;58751;50.708;7.134;2023-12-20T05:57:38;6.50;;;4.20;;
71091;SDS011;58751;50.708;7.134;2023-12-20T06:00:04;7.47;;;3.77;;
71091;SDS011;58751;50.708;7.134;2023-12-20T06:02:30;8.95;;;4.70;;
71091;SDS011;58751;50.708;7.134;2023-12-20T06:04:57;11.53;;;5.33;;
71091;SDS011;58751;50.708;7.134;2023-12-20T06:07:23;10.63;;;4.55;;
71091;SDS011;58751;50.708;7.134;2023-12-20T06:09:48;6.77;;;4.07;;
71091;SDS011;58751;50.708;7.134;2023-12-20T06:12:13;8.17;;;4.03;;
71091;SDS011;58751;50.708;7.134;2023-12-20T06:14:39;10.60;;;5.57;;
71091;SDS011;58751;50.708;7.134;2023-12-20T06:17:04;8.90;;;4.40;;
71091;SDS011;58751;50.708;7.134;2023-12-20T06:19:30;11.23;;;4.17;;
71091;SDS011;58751;50.708;7.134;2023-12-20T06:21:57;9.00;;;4.90;;
71091;SDS011;58751;50.708;7.134;2023-12-20T06:24:22;9.30;;;4.32;;
71091;SDS011;58751;50.708;7.134;2023-12-20T06:26:48;9.10;;;4.27;;
71091;SDS011;58751;50.708;7.134;2023-12-20T06:29:13;12.80;;;3.83;;
71091;SDS011;58751;50.708;7.134;2023-12-20T06:31:39;13.50;;;4.70;;
71091;SDS011;58751;50.708;7.134;2023-12-20T06:34:04;10.50;;;4.40;;
71091;SDS011;58751;50.708;7.134;2023-12-20T06:36:30;13.37;;;5.37;;
71091;SDS011;58751;50.708;7.134;2023-12-20T06:38:57;13.20;;;4.77;;
71091;SDS011;58751;50.708;7.134;2023-12-20T06:41:22;10.45;;;4.32;;
71091;SDS011;58751;50.708;7.134;2023-12-20T06:43:47;12.00;;;4.70;;
71091;SDS011;58751;50.708;7.134;2023-12-20T06:46:13;7.10;;;4.27;;
71091;SDS011;58751;50.708;7.134;2023-12-20T06:48:38;11.90;;;3.83;;
71091;SDS011;58751;50.708;7.134;2023-12-20T06:51:04;10.27;;;4.50;;
71091;SDS011;58751;50.708;7.134;2023-12-20T06:53:30;12.25;;;3.75;;
71091;SDS011;58751;50.708;7.134;2023-12-20T06:55:57;11.30;;;4.20;;
71091;SDS011;58751;50.708;7.134;2023-12-20T06:58:22;11.45;;;4.18;;
71091;SDS011;58751;50.708;7.134;2023-12-20T07:00:48;7.07;;;4.30;;
71091;SDS011;58751;50.708;7.134;2023-12-20T07:03:13;12.33;;;4.50;;
71091;SDS011;58751;50.708;7.134;2023-12-20T07:05:39;10.27;;;5.20;;
71091;SDS011;58751;50.708;7.134;2023-12-20T07:08:05;11.70;;;5.47;;
71091;SDS011;58751;50.708;7.134;2023-12-20T07:10:31;10.38;;;4.60;;
71091;SDS011;58751;50.708;7.134;2023-12-20T07:12:57;10.73;;;3.80;;
71091;SDS011;58751;50.708;7.134;2023-12-20T07:15:23;11.07;;;3.65;;
71091;SDS011;58751;50.708;7.134;2023-12-20T07:17:56;13.20;;;5.37;;
71091;SDS011;58751;50.708;7.134;2023-12-20T07:20:21;16.30;;;4.95;;
71091;SDS011;58751;50.708;7.134;2023-12-20T07:22:47;7.00;;;3.90;;
71091;SDS011;58751;50.708;7.134;2023-12-20T07:25:12;8.90;;;3.63;;
71091;SDS011;58751;50.708;7.134;2023-12-20T07:27:37;14.90;;;4.50;;
71091;SDS011;58751;50.708;7.134;2023-12-20T07:30:05;7.30;;;3.83;;
71091;SDS011;58751;50.708;7.134;2023-12-20T07:32:31;13.10;;;4.43;;
71091;SDS011;58751;50.708;7.134;2023-12-20T07:34:56;11.70;;;4.10;;
71091;SDS011;58751;50.708;7.134;2023-12-20T07:37:22;8.90;;;3.87;;
71091;SDS011;58751;50.708;7.134;2023-12-20T07:39:47;8.97;;;4.50;;
71091;SDS011;58751;50.708;7.134;2023-12-20T07:42:13;11.87;;;4.43;;
71091;SDS011;58751;50.708;7.134;2023-12-20T07:44:38;10.23;;;3.83;;
71091;SDS011;58751;50.708;7.134;2023-12-20T07:47:05;12.73;;;4.47;;
71091;SDS011;58751;50.708;7.134;2023-12-20T07:49:30;11.10;;;5.22;;
71091;SDS011;58751;50.708;7.134;2023-12-20T07:51:56;14.13;;;5.80;;
71091;SDS011;58751;50.708;7.134;2023-12-20T07:54:21;10.20;;;4.30;;
71091;SDS011;58751;50.708;7.134;2023-12-20T07:56:47;10.53;;;4.13;;
71091;SDS011;58751;50.708;7.134;2023-12-20T07:59:13;7.05;;;3.88;;
71091;SDS011;58751;50.708;7.134;2023-12-20T08:01:39;10.40;;;3.73;;
71091;SDS011;58751;50.708;7.134;2023-12-20T08:04:06;9.20;;;3.50;;
71091;SDS011;58751;50.708;7.134;2023-12-20T08:06:34;13.90;;;4.90;;
71091;SDS011;58751;50.708;7.134;2023-12-20T08:08:59;8.43;;;4.30;;
71091;SDS011;58751;50.708;7.134;2023-12-20T08:11:24;11.23;;;4.50;;
71091;SDS011;58751;50.708;7.134;2023-12-20T08:13:50;10.50;;;4.03;;
71091;SDS011;58751;50.708;7.134;2023-12-20T08:16:15;11.20;;;4.63;;
71091;SDS011;58751;50.708;7.134;2023-12-20T08:18:41;10.03;;;3.97;;
71091;SDS011;58751;50.708;7.134;2023-12-20T08:21:10;14.00;;;5.50;;
71091;SDS011;58751;50.708;7.134;2023-12-20T08:23:38;8.13;;;4.63;;
71091;SDS011;58751;50.708;7.134;2023-12-20T08:26:04;6.50;;;3.43;;
71091;SDS011;58751;50.708;7.134;2023-12-20T08:28:29;10.70;;;4.03;;
71091;SDS011;58751;50.708;7.134;2023-12-20T08:30:55;11.97;;;4.37;;
71091;SDS011;58751;50.708;7.134;2023-12-20T08:33:20;15.03;;;4.50;;
71091;SDS011;58751;50.708;7.134;2023-12-20T08:35:46;8.40;;;4.13;;
71091;SDS011;58751;50.708;7.134;2023-12-20T08:38:15;9.80;;;4.47;;
71091;SDS011;58751;50.708;7.134;2023-12-20T08:40:40;9.35;;;4.13;;
71091;SDS011;58751;50.708;7.134;2023-12-20T08:43:06;12.63;;;4.90;;
71091;SDS011;58751;50.708;7.134;2023-12-20T08:45:31;10.73;;;4.17;;
71091;SDS011;58751;50.708;7.134;2023-12-20T08:47:57;7.13;;;3.87;;
71091;SDS011;58751;50.708;7.134;2023-12-20T08:50:22;8.23;;;3.53;;
71091;SDS011;58751;50.708;7.134;2023-12-20T08:52:48;8.63;;;3.87;;
71091;SDS011;58751;50.708;7.134;2023-12-20T08:55:14;7.43;;;3.70;;
71091;SDS011;58751;50.708;7.134;2023-12-20T08:57:40;8.13;;;4.50;;
71091;SDS011;58751;50.708;7.134;2023-12-20T09:00:06;9.20;;;3.60;;
71091;SDS011;58751;50.708;7.134;2023-12-20T09:02:32;8.00;;;4.03;;
71091;SDS011;58751;50.708;7.134;2023-12-20T09:04:57;9.40;;;3.80;;
71091;SDS011;58751;50.708;7.134;2023-12-20T09:07:23;11.30;;;3.40;;
71091;SDS011;58751;50.708;7.134;2023-12-20T09:09:49;10.43;;;4.10;;
71091;SDS011;58751;50.708;7.134;2023-12-20T09:12:17;7.17;;;3.70;;
71091;SDS011;58751;50.708;7.134;2023-12-20T09:14:42;8.88;;;3.70;;
71091;SDS011;58751;50.708;7.134;2023-12-20T09:17:08;17.30;;;4.20;;
71091;SDS011;58751;50.708;7.134;2023-12-20T09:19:33;14.63;;;3.60;;
71091;SDS011;58751;50.708;7.134;2023-12-20T09:21:59;10.07;;;3.47;;
71091;SDS011;58751;50.708;7.134;2023-12-20T09:24:24;5.83;;;3.57;;
71091;SDS011;58751;50.708;7.134;2023-12-20T09:26:49;4.87;;;2.93;;
71091;SDS011;58751;50.708;7.134;2023-12-20T09:29:16;8.80;;;3.10;;
71091;SDS011;58751;50.708;7.134;2023-12-20T09:31:42;7.93;;;2.90;;
71091;SDS011;58751;50.708;7.134;2023-12-20T09:34:07;7.83;;;3.13;;
71091;SDS011;58751;50.708;7.134;2023-12-20T09:36:33;10.40;;;4.53;;
71091;SDS011;58751;50.708;7.134;2023-12-20T09:38:58;8.97;;;3.17;;
71091;SDS011;58751;50.708;7.134;2023-12-20T09:41:24;8.57;;;5.17;;
71091;SDS011;58751;50.708;7.134;2023-12-20T09:43:50;4.78;;;3.20;;
71091;SDS011;58751;50.708;7.134;2023-12-20T09:46:19;11.45;;;4.22;;
71091;SDS011;58751;50.708;7.134;2023-12-20T09:48:49;12.77;;;3.50;;
71091;SDS011;58751;50.708;7.134;2023-12-20T09:51:15;8.70;;;3.13;;
71091;SDS011;58751;50.708;7.134;2023-12-20T09:53:41;6.33;;;3.03;;
71091;SDS011;58751;50.708;7.134;2023-12-20T09:56:07;4.20;;;3.08;;
71091;SDS011;58751;50.708;7.134;2023-12-20T09:58:32;7.93;;;3.47;;
71091;SDS011;58751;50.708;7.134;2023-12-20T10:01:00;13.63;;;3.15;;
71091;SDS011;58751;50.708;7.134;2023-12-20T10:03:28;9.00;;;3.08;;
71091;SDS011;58751;50.708;7.134;2023-12-20T10:05:54;8.15;;;2.67;;
71091;SDS011;58751;50.708;7.134;2023-12-20T10:08:20;7.15;;;3.65;;
71091;SDS011;58751;50.708;7.134;2023-12-20T10:10:46;8.77;;;3.72;;
71091;SDS011;58751;50.708;7.134;2023-12-20T10:13:12;6.80;;;3.20;;
71091;SDS011;58751;50.708;7.134;2023-12-20T10:15:37;7.33;;;3.00;;
71091;SDS011;58751;50.708;7.134;2023-12-20T10:18:03;8.03;;;3.40;;
71091;SDS011;58751;50.708;7.134;2023-12-20T10:20:31;6.75;;;2.55;;
71091;SDS011;58751;50.708;7.134;2023-12-20T10:22:56;11.98;;;3.85;;
71091;SDS011;58751;50.708;7.134;2023-12-20T10:25:22;8.23;;;3.00;;
71091;SDS011;58751;50.708;7.134;2023-12-20T10:27:49;10.77;;;3.30;;
71091;SDS011;58751;50.708;7.134;2023-12-20T10:30:14;6.10;;;3.33;;
71091;SDS011;58751;50.708;7.134;2023-12-20T10:32:40;8.20;;;3.23;;
71091;SDS011;58751;50.708;7.134;2023-12-20T10:35:05;6.93;;;2.67;;
71091;SDS011;58751;50.708;7.134;2023-12-20T10:37:33;7.30;;;2.70;;
71091;SDS011;58751;50.708;7.134;2023-12-20T10:40:00;6.78;;;3.58;;
71091;SDS011;58751;50.708;7.134;2023-12-20T10:42:29;9.88;;;3.28;;
71091;SDS011;58751;50.708;7.134;2023-12-20T10:44:56;5.45;;;3.25;;
71091;SDS011;58751;50.708;7.134;2023-12-20T10:47:21;8.10;;;3.37;;
71091;SDS011;58751;50.708;7.134;2023-12-20T10:49:47;13.27;;;4.18;;
71091;SDS011;58751;50.708;7.134;2023-12-20T10:52:13;9.33;;;3.77;;
71091;SDS011;58751;50.708;7.134;2023-12-20T10:54:40;17.93;;;4.30;;
71091;SDS011;58751;50.708;7.134;2023-12-20T10:57:05;13.63;;;7.13;;
71091;SDS011;58751;50.708;7.134;2023-12-20T10:59:32;11.88;;;4.03;;
71091;SDS011;58751;50.708;7.134;2023-12-20T11:01:58;5.57;;;2.95;;
71091;SDS011;58751;50.708;7.134;2023-12-20T11:04:25;10.15;;;3.00;;
71091;SDS011;58751;50.708;7.134;2023-12-20T11:06:54;14.60;;;3.15;;
71091;SDS011;58751;50.708;7.134;2023-12-20T11:09:23;13.45;;;2.85;;
71091;SDS011;58751;50.708;7.134;2023-12-20T11:11:55;11.63;;;3.60;;
71091;SDS011;58751;50.708;7.134;2023-12-20T11:14:25;5.95;;;3.22;;
71091;SDS011;58751;50.708;7.134;2023-12-20T11:17:05;10.90;;;3.58;;
71091;SDS011;58751;50.708;7.134;2023-12-20T11:19:30;8.98;;;3.90;;
71091;SDS011;58751;50.708;7.134;2023-12-20T11:21:56;7.60;;;4.40;;
71091;SDS011;58751;50.708;7.134;2023-12-20T11:24:22;6.93;;;3.33;;
71091;SDS011;58751;50.708;7.134;2023-12-20T11:26:47;11.70;;;4.03;;
71091;SDS011;58751;50.708;7.134;2023-12-20T11:29:33;11.63;;;3.33;;
71091;SDS011;58751;50.708;7.134;2023-12-20T11:31:59;8.15;;;3.85;;
71091;SDS011;58751;50.708;7.134;2023-12-20T11:34:26;11.30;;;4.80;;
71091;SDS011;58751;50.708;7.134;2023-12-20T11:36:56;7.05;;;3.17;;
71091;SDS011;58751;50.708;7.134;2023-12-20T11:39:22;9.20;;;3.75;;
71091;SDS011;58751;50.708;7.134;2023-12-20T11:41:48;5.63;;;2.90;;
71091;SDS011;58751;50.708;7.134;2023-12-20T11:44:14;8.60;;;3.50;;
71091;SDS011;58751;50.708;7.134;2023-12-20T11:46:43;6.35;;;3.28;;
71091;SDS011;58751;50.708;7.134;2023-12-20T11:49:09;16.77;;;4.35;;
71091;SDS011;58751;50.708;7.134;2023-12-20T11:51:34;5.67;;;3.10;;
71091;SDS011;58751;50.708;7.134;2023-12-20T11:54:00;8.80;;;3.70;;
71091;SDS011;58751;50.708;7.134;2023-12-20T11:56:25;16.10;;;4.27;;
71091;SDS011;58751;50.708;7.134;2023-12-20T11:58:51;7.27;;;3.30;;
71091;SDS011;58751;50.708;7.134;2023-12-20T12:01:16;3.70;;;2.97;;
71091;SDS011;58751;50.708;7.134;2023-12-20T12:03:45;7.43;;;3.58;;
71091;SDS011;58751;50.708;7.134;2023-12-20T12:06:11;6.60;;;3.30;;
71091;SDS011;58751;50.708;7.134;2023-12-20T12:08:36;4.63;;;3.17;;
71091;SDS011;58751;50.708;7.134;2023-12-20T12:11:02;5.97;;;2.93;;
71091;SDS011;58751;50.708;7.134;2023-12-20T12:13:28;8.67;;;3.90;;
71091;SDS011;58751;50.708;7.134;2023-12-20T12:15:53;7.90;;;3.50;;
71091;SDS011;58751;50.708;7.134;2023-12-20T12:18:18;8.53;;;3.20;;
71091;SDS011;58751;50.708;7.134;2023-12-20T12:20:45;9.93;;;3.90;;
71091;SDS011;58751;50.708;7.134;2023-12-20T12:23:11;6.38;;;3.28;;
71091;SDS011;58751;50.708;7.134;2023-12-20T12:25:36;8.40;;;3.40;;
71091;SDS011;58751;50.708;7.134;2023-12-20T12:28:02;8.47;;;4.47;;
71091;SDS011;58751;50.708;7.134;2023-12-20T12:30:28;5.03;;;3.13;;
71091;SDS011;58751;50.708;7.134;2023-12-20T12:32:53;9.37;;;3.57;;
71091;SDS011;58751;50.708;7.134;2023-12-20T12:35:20;9.43;;;3.50;;
71091;SDS011;58751;50.708;7.134;2023-12-20T12:37:48;4.68;;;3.25;;
71091;SDS011;58751;50.708;7.134;2023-12-20T12:40:14;8.57;;;3.50;;
71091;SDS011;58751;50.708;7.134;2023-12-20T12:42:42;8.43;;;4.35;;
71091;SDS011;58751;50.708;7.134;2023-12-20T12:45:09;7.53;;;3.30;;
71091;SDS011;58751;50.708;7.134;2023-12-20T12:47:34;10.87;;;3.20;;
71091;SDS011;58751;50.708;7.134;2023-12-20T12:50:00;5.47;;;3.17;;
71091;SDS011;58751;50.708;7.134;2023-12-20T12:52:26;7.20;;;3.40;;
71091;SDS011;58751;50.708;7.134;2023-12-20T12:54:53;7.60;;;3.53;;
71091;SDS011;58751;50.708;7.134;2023-12-20T12:57:18;13.52;;;3.40;;
71091;SDS011;58751;50.708;7.134;2023-12-20T12:59:44;12.40;;;3.27;;
71091;SDS011;58751;50.708;7.134;2023-12-20T13:02:10;4.78;;;3.03;;
71091;SDS011;58751;50.708;7.134;2023-12-20T13:04:36;7.03;;;3.33;;
71091;SDS011;58751;50.708;7.134;2023-12-20T13:07:01;8.70;;;3.73;;
71091;SDS011;58751;50.708;7.134;2023-12-20T13:09:29;6.67;;;3.30;;
71091;SDS011;58751;50.708;7.134;2023-12-20T13:11:56;6.82;;;3.03;;
71091;SDS011;58751;50.708;7.134;2023-12-20T13:14:25;10.43;;;3.35;;
71091;SDS011;58751;50.708;7.134;2023-12-20T13:16:50;6.85;;;3.42;;
71091;SDS011;58751;50.708;7.134;2023-12-20T13:19:16;7.40;;;3.60;;
71091;SDS011;58751;50.708;7.134;2023-12-20T13:21:42;4.63;;;3.00;;
71091;SDS011;58751;50.708;7.134;2023-12-20T13:24:07;3.77;;;2.93;;
71091;SDS011;58751;50.708;7.134;2023-12-20T13:26:35;5.97;;;3.25;;
71091;SDS011;58751;50.708;7.134;2023-12-20T13:29:02;6.13;;;3.93;;
71091;SDS011;58751;50.708;7.134;2023-12-20T13:31:27;8.13;;;3.78;;
71091;SDS011;58751;50.708;7.134;2023-12-20T13:33:53;8.50;;;3.97;;
71091;SDS011;58751;50.708;7.134;2023-12-20T13:36:18;10.30;;;3.33;;
71091;SDS011;58751;50.708;7.134;2023-12-20T13:38:43;7.60;;;3.40;;
71091;SDS011;58751;50.708;7.134;2023-12-20T13:41:09;9.23;;;3.80;;
71091;SDS011;58751;50.708;7.134;2023-12-20T13:43:34;9.43;;;4.07;;
71091;SDS011;58751;50.708;7.134;2023-12-20T13:46:02;5.77;;;3.27;;
71091;SDS011;58751;50.708;7.134;2023-12-20T13:48:27;7.63;;;3.55;;
71091;SDS011;58751;50.708;7.134;2023-12-20T13:50:53;9.33;;;4.10;;
71091;SDS011;58751;50.708;7.134;2023-12-20T13:53:19;6.60;;;3.67;;
71091;SDS011;58751;50.708;7.134;2023-12-20T13:55:44;7.57;;;3.20;;
71091;SDS011;58751;50.708;7.134;2023-12-20T13:58:11;6.57;;;5.13;;
71091;SDS011;58751;50.708;7.134;2023-12-20T14:00:40;7.40;;;3.70;;
71091;SDS011;58751;50.708;7.134;2023-12-20T14:03:10;9.70;;;5.60;;
71091;SDS011;58751;50.708;7.134;2023-12-20T14:05:38;11.15;;;4.65;;
71091;SDS011;58751;50.708;7.134;2023-12-20T14:08:06;9.82;;;4.00;;
71091;SDS011;58751;50.708;7.134;2023-12-20T14:10:31;9.73;;;3.78;;
71091;SDS011;58751;50.708;7.134;2023-12-20T14:12:57;5.13;;;3.50;;
71091;SDS011;58751;50.708;7.134;2023-12-20T14:15:22;4.70;;;3.47;;
71091;SDS011;58751;50.708;7.134;2023-12-20T14:17:48;7.87;;;3.80;;
71091;SDS011;58751;50.708;7.134;2023-12-20T14:20:14;7.57;;;3.40;;
71091;SDS011;58751;50.708;7.134;2023-12-20T14:22:40;3.20;;;2.75;;
71091;SDS011;58751;50.708;7.134;2023-12-20T14:25:06;4.70;;;2.80;;
71091;SDS011;58751;50.708;7.134;2023-12-20T14:27:32;7.88;;;3.25;;
71091;SDS011;58751;50.708;7.134;2023-12-20T14:29:58;8.07;;;2.60;;
71091;SDS011;58751;50.708;7.134;2023-12-20T14:32:23;6.93;;;2.20;;
71091;SDS011;58751;50.708;7.134;2023-12-20T14:34:49;7.00;;;3.67;;
71091;SDS011;58751;50.708;7.134;2023-12-20T14:37:16;1.73;;;1.57;;
71091;SDS011;58751;50.708;7.134;2023-12-20T14:39:41;2.95;;;1.50;;